createdAt,value
2022-10-06T06:15:07.261Z,100.00
2022-10-06T06:25:06.956Z,100.00
2022-10-06T06:35:06.994Z,100.00
2022-10-06T06:45:07.104Z,100.00
2022-10-06T06:55:07.167Z,100.00
2022-10-06T07:05:07.293Z,100.00
2022-10-06T07:15:07.169Z,100.00
2022-10-06T07:25:07.172Z,100.00
2022-10-06T07:35:07.218Z,100.00
2022-10-06T07:45:07.132Z,99.11
2022-10-06T07:55:07.226Z,97.76
2022-10-06T08:05:07.278Z,94.39
2022-10-06T08:15:07.711Z,94.16
2022-10-06T08:25:07.605Z,92.47
2022-10-06T08:35:07.218Z,90.32
2022-10-06T08:45:07.510Z,88.63
2022-10-06T08:55:07.556Z,84.70
2022-10-06T09:05:07.452Z,83.03
2022-10-06T09:15:07.493Z,82.21
2022-10-06T09:25:07.329Z,81.40
2022-10-06T09:35:07.510Z,76.61
2022-10-06T09:45:07.299Z,76.67
2022-10-06T09:55:07.274Z,74.69
2022-10-06T10:05:07.510Z,73.92
2022-10-06T10:15:07.382Z,74.00
2022-10-06T10:25:07.307Z,71.65
2022-10-06T10:35:07.538Z,72.33
2022-10-06T10:45:07.338Z,71.48
2022-10-06T10:55:07.697Z,69.19
2022-10-06T11:05:07.713Z,66.83
2022-10-06T11:15:07.610Z,67.15
2022-10-06T11:35:07.441Z,64.52
2022-10-06T11:45:08.579Z,63.71
2022-10-06T11:55:07.569Z,59.94
2022-10-06T12:05:18.169Z,61.08
2022-10-06T12:25:07.533Z,60.62
2022-10-06T12:35:07.542Z,59.78
2022-10-06T12:45:07.664Z,60.32
2022-10-06T12:55:07.655Z,59.65
2022-10-06T13:05:07.588Z,59.74
2022-10-06T13:15:07.614Z,60.70
2022-10-06T13:25:07.640Z,61.27
2022-10-06T13:35:07.609Z,58.83
2022-10-06T13:45:07.548Z,59.76
2022-10-06T13:55:07.523Z,60.22
2022-10-06T14:05:07.681Z,58.37
2022-10-06T14:15:07.744Z,58.21
2022-10-06T14:25:07.538Z,57.33
2022-10-06T14:35:07.638Z,57.06
2022-10-06T14:45:07.561Z,58.27
2022-10-06T14:55:07.506Z,56.78
2022-10-06T15:05:07.649Z,57.59
2022-10-06T15:15:07.596Z,57.93
2022-10-06T15:25:07.707Z,58.82
2022-10-06T15:35:07.533Z,58.40
2022-10-06T15:45:07.847Z,59.72
2022-10-06T15:55:07.728Z,60.14
2022-10-06T16:05:07.548Z,60.68
2022-10-06T16:15:07.745Z,60.88
2022-10-06T16:25:07.894Z,61.41
2022-10-06T16:35:07.662Z,63.93
2022-10-06T16:45:07.795Z,67.50
2022-10-06T16:55:07.805Z,69.98
2022-10-06T17:05:07.765Z,71.84
2022-10-06T17:15:07.721Z,74.04
2022-10-06T17:25:07.770Z,75.58
2022-10-06T17:35:07.655Z,76.92
2022-10-06T17:45:07.733Z,76.84
2022-10-06T17:55:07.911Z,77.50
2022-10-06T18:05:07.797Z,80.01
2022-10-06T18:15:07.763Z,83.05
2022-10-06T18:25:07.982Z,85.70
2022-10-06T18:45:07.745Z,88.45
2022-10-06T18:55:07.884Z,92.93
2022-10-06T19:05:07.780Z,100.00
2022-10-06T19:15:07.887Z,100.00
